createdAt,value
2022-11-06T00:00:13.310Z,17.64
2022-11-06T00:01:13.305Z,17.71
2022-11-06T00:02:19.194Z,17.74
2022-11-06T00:03:13.602Z,17.72
2022-11-06T00:04:13.297Z,17.70
2022-11-06T00:05:13.295Z,17.74
2022-11-06T00:06:13.299Z,17.75
2022-11-06T00:07:13.289Z,17.75
2022-11-06T00:08:13.706Z,17.74
2022-11-06T00:09:13.293Z,17.75
2022-11-06T00:10:13.299Z,17.68
2022-11-06T00:11:13.272Z,17.74
2022-11-06T00:12:13.279Z,17.75
2022-11-06T00:13:13.275Z,17.64
2022-11-06T00:14:13.279Z,17.71
2022-11-06T00:15:13.266Z,17.70
2022-11-06T00:16:13.269Z,17.71
2022-11-06T00:17:13.268Z,17.68
2022-11-06T00:18:13.624Z,17.72
2022-11-06T00:19:13.253Z,17.64
2022-11-06T00:20:13.257Z,17.71
2022-11-06T00:21:13.245Z,17.68
2022-11-06T00:22:13.239Z,17.64
2022-11-06T00:23:13.242Z,17.68
2022-11-06T00:24:13.234Z,17.75
2022-11-06T00:25:13.236Z,17.62
2022-11-06T00:26:13.258Z,17.71
2022-11-06T00:27:13.232Z,17.63
2022-11-06T00:28:13.677Z,17.59
2022-11-06T00:29:13.234Z,17.66
2022-11-06T00:30:13.219Z,17.71
2022-11-06T00:31:13.240Z,17.68
2022-11-06T00:32:13.215Z,17.68
2022-11-06T00:33:13.216Z,17.62
2022-11-06T00:34:13.210Z,17.66
2022-11-06T00:35:13.201Z,17.58
2022-11-06T00:36:13.207Z,17.66
2022-11-06T00:37:13.204Z,17.64
2022-11-06T00:38:13.547Z,17.63
2022-11-06T00:39:13.200Z,17.71
2022-11-06T00:40:13.195Z,17.64
2022-11-06T00:41:13.207Z,17.62
2022-11-06T00:42:13.196Z,17.68
2022-11-06T00:43:13.184Z,17.58
2022-11-06T00:44:13.179Z,17.68
2022-11-06T00:45:13.168Z,17.58
2022-11-06T00:46:13.166Z,17.63
2022-11-06T00:47:13.165Z,17.68
2022-11-06T00:48:13.544Z,17.62
2022-11-06T00:49:13.162Z,17.62
2022-11-06T00:50:13.152Z,17.62
2022-11-06T00:51:13.166Z,17.62
2022-11-06T00:52:13.154Z,17.58
2022-11-06T00:53:13.139Z,17.62
2022-11-06T00:54:13.145Z,17.62
2022-11-06T00:55:13.136Z,17.68
2022-11-06T00:56:13.168Z,17.70
2022-11-06T00:57:13.146Z,17.68
2022-11-06T00:58:13.543Z,17.62
2022-11-06T00:59:13.145Z,17.59
2022-11-06T01:00:13.138Z,17.70
2022-11-06T01:01:13.121Z,17.62
2022-11-06T01:02:13.277Z,17.62
2022-11-06T01:03:13.150Z,17.59
2022-11-06T01:04:13.126Z,17.52
2022-11-06T01:05:13.134Z,17.52
2022-11-06T01:06:13.121Z,17.54
2022-11-06T01:07:13.111Z,17.63
2022-11-06T01:08:13.503Z,17.63
2022-11-06T01:09:13.095Z,17.52
2022-11-06T01:10:13.104Z,17.55
2022-11-06T01:11:13.089Z,17.63
2022-11-06T01:12:14.133Z,17.58
2022-11-06T01:13:13.092Z,17.55
2022-11-06T01:14:13.099Z,17.54
2022-11-06T01:15:13.088Z,17.56
2022-11-06T01:16:13.079Z,17.56
2022-11-06T01:17:13.069Z,17.58
2022-11-06T01:18:13.298Z,17.54
2022-11-06T01:19:13.075Z,17.52
2022-11-06T01:20:13.070Z,17.62
2022-11-06T01:21:13.065Z,17.56
2022-11-06T01:22:13.058Z,17.52
2022-11-06T01:23:13.064Z,17.62
2022-11-06T01:24:13.093Z,17.63
2022-11-06T01:25:13.098Z,17.54
2022-11-06T01:26:13.050Z,17.56
2022-11-06T01:27:26.015Z,17.63
2022-11-06T01:28:13.325Z,17.59
2022-11-06T01:29:13.042Z,17.49
2022-11-06T01:30:13.147Z,17.58
2022-11-06T01:31:13.036Z,17.56
2022-11-06T01:32:13.031Z,17.51
2022-11-06T01:33:13.028Z,17.46
2022-11-06T01:34:13.026Z,17.56
2022-11-06T01:35:13.018Z,17.46
2022-11-06T01:36:13.031Z,17.62
2022-11-06T01:37:14.781Z,17.51
2022-11-06T01:38:13.193Z,17.49
2022-11-06T01:39:13.009Z,17.58
2022-11-06T01:40:13.008Z,17.49
2022-11-06T01:41:13.000Z,17.52
2022-11-06T01:42:13.001Z,17.51
2022-11-06T01:43:12.989Z,17.49
2022-11-06T01:44:12.985Z,17.55
2022-11-06T01:45:12.991Z,17.51
2022-11-06T01:46:13.024Z,17.51
2022-11-06T01:47:12.997Z,17.49
2022-11-06T01:48:13.267Z,17.41
2022-11-06T01:49:12.978Z,17.52
2022-11-06T01:50:12.970Z,17.51
2022-11-06T01:51:12.968Z,17.48
2022-11-06T01:52:12.961Z,17.48
2022-11-06T01:53:12.963Z,17.51
2022-11-06T01:54:12.980Z,17.49
2022-11-06T01:55:12.958Z,17.44
2022-11-06T01:56:12.951Z,17.49
2022-11-06T01:57:12.962Z,17.48
2022-11-06T01:58:13.327Z,17.52
2022-11-06T01:59:12.942Z,17.46
2022-11-06T02:00:12.943Z,17.44
2022-11-06T02:01:12.942Z,17.48
2022-11-06T02:02:13.147Z,17.52
2022-11-06T02:03:12.970Z,17.48
2022-11-06T02:04:12.937Z,17.46
2022-11-06T02:05:12.922Z,17.55
2022-11-06T02:06:12.918Z,17.46
2022-11-06T02:07:12.916Z,17.43
2022-11-06T02:08:13.210Z,17.43
2022-11-06T02:09:12.932Z,17.52
2022-11-06T02:10:12.905Z,17.46
2022-11-06T02:11:12.912Z,17.48
2022-11-06T02:12:12.919Z,17.51
2022-11-06T02:13:12.927Z,17.51
2022-11-06T02:14:12.893Z,17.48
2022-11-06T02:15:12.884Z,17.44
2022-11-06T02:16:12.882Z,17.46
2022-11-06T02:17:12.893Z,17.52
2022-11-06T02:18:13.143Z,17.51
2022-11-06T02:19:12.902Z,17.43
2022-11-06T02:20:12.875Z,17.43
2022-11-06T02:21:12.876Z,17.44
2022-11-06T02:22:12.872Z,17.48
2022-11-06T02:23:12.878Z,17.48
2022-11-06T02:24:12.865Z,17.48
2022-11-06T02:25:12.862Z,17.46
2022-11-06T02:26:12.852Z,17.51
2022-11-06T02:27:12.863Z,17.41
2022-11-06T02:28:13.268Z,17.46
2022-11-06T02:29:55.272Z,17.48
2022-11-06T02:30:55.274Z,17.48
2022-11-06T02:31:55.271Z,17.49
2022-11-06T02:32:55.254Z,17.52
2022-11-06T02:33:55.285Z,17.49
2022-11-06T02:34:55.255Z,17.44
2022-11-06T02:35:55.253Z,17.48
2022-11-06T02:36:55.248Z,17.44
2022-11-06T02:37:55.244Z,17.48
2022-11-06T02:38:55.239Z,17.51
2022-11-06T02:39:55.234Z,17.48
2022-11-06T02:40:55.231Z,17.51
2022-11-06T02:41:55.242Z,17.44
2022-11-06T02:42:55.238Z,17.43
2022-11-06T02:43:55.217Z,17.41
2022-11-06T02:44:55.220Z,17.54
2022-11-06T02:45:55.217Z,17.49
2022-11-06T02:46:55.218Z,17.46
2022-11-06T02:47:55.204Z,17.48
2022-11-06T02:48:55.203Z,17.40
2022-11-06T02:49:55.221Z,17.44
2022-11-06T02:50:55.212Z,17.51
2022-11-06T02:51:55.201Z,17.41
2022-11-06T02:52:55.194Z,17.46
2022-11-06T02:53:55.183Z,17.44
2022-11-06T02:54:55.188Z,17.49
2022-11-06T02:55:55.179Z,17.44
2022-11-06T02:56:55.180Z,17.48
2022-11-06T02:57:55.177Z,17.46
2022-11-06T02:58:55.173Z,17.38
2022-11-06T02:59:55.177Z,17.44
2022-11-06T03:00:55.179Z,17.41
2022-11-06T03:01:55.414Z,17.36
2022-11-06T03:02:55.345Z,17.43
2022-11-06T03:03:55.160Z,17.46
2022-11-06T03:04:55.155Z,17.41
2022-11-06T03:05:55.169Z,17.41
2022-11-06T03:06:55.142Z,17.44
2022-11-06T03:07:55.139Z,17.43
2022-11-06T03:08:55.138Z,17.37
2022-11-06T03:09:55.134Z,17.37
2022-11-06T03:10:55.131Z,17.43
2022-11-06T03:11:55.128Z,17.44
2022-11-06T03:12:55.140Z,17.36
2022-11-06T03:13:55.123Z,17.40
2022-11-06T03:14:55.118Z,17.46
2022-11-06T03:15:55.125Z,17.31
2022-11-06T03:16:55.118Z,17.40
2022-11-06T03:17:55.108Z,17.34
2022-11-06T03:18:55.127Z,17.41
2022-11-06T03:19:55.107Z,17.41
2022-11-06T03:20:55.104Z,17.28
2022-11-06T03:21:55.120Z,17.38
2022-11-06T03:22:55.090Z,17.36
2022-11-06T03:23:55.094Z,17.31
2022-11-06T03:24:55.085Z,17.28
2022-11-06T03:25:55.089Z,17.28
2022-11-06T03:26:55.081Z,17.36
2022-11-06T03:27:55.081Z,17.30
2022-11-06T03:28:55.082Z,17.30
2022-11-06T03:29:55.071Z,17.37
2022-11-06T03:30:55.071Z,17.37
2022-11-06T03:31:55.068Z,17.36
2022-11-06T03:32:55.074Z,17.30
2022-11-06T03:33:55.071Z,17.33
2022-11-06T03:34:55.061Z,17.31
2022-11-06T03:35:55.055Z,17.30
2022-11-06T03:36:55.050Z,17.34
2022-11-06T03:37:55.061Z,17.31
2022-11-06T03:38:55.048Z,17.34
2022-11-06T03:39:55.046Z,17.31
2022-11-06T03:40:55.038Z,17.31
2022-11-06T03:41:55.041Z,17.33
2022-11-06T03:42:55.036Z,17.31
2022-11-06T03:43:55.033Z,17.37
2022-11-06T03:44:55.022Z,17.31
2022-11-06T03:45:55.024Z,17.30
2022-11-06T03:46:55.013Z,17.33
2022-11-06T03:47:55.014Z,17.34
2022-11-06T03:48:55.013Z,17.34
2022-11-06T03:49:55.004Z,17.30
2022-11-06T03:50:55.006Z,17.26
2022-11-06T03:51:54.996Z,17.33
2022-11-06T03:52:54.999Z,17.31
2022-11-06T03:53:55.015Z,17.31
2022-11-06T03:54:54.985Z,17.28
2022-11-06T03:55:54.987Z,17.30
2022-11-06T03:56:54.990Z,17.30
2022-11-06T03:57:54.974Z,17.36
2022-11-06T03:58:55.128Z,17.30
2022-11-06T03:59:54.969Z,17.30
2022-11-06T04:00:54.976Z,17.30
2022-11-06T04:01:55.101Z,17.36
2022-11-06T04:02:55.041Z,17.30
2022-11-06T04:03:54.953Z,17.33
2022-11-06T04:04:54.961Z,17.25
2022-11-06T04:05:54.955Z,17.30
2022-11-06T04:06:54.950Z,17.26
2022-11-06T04:07:54.940Z,17.34
2022-11-06T04:08:54.937Z,17.21
2022-11-06T04:09:54.966Z,17.28
2022-11-06T04:10:54.942Z,17.25
2022-11-06T04:11:54.958Z,17.31
2022-11-06T04:12:54.930Z,17.26
2022-11-06T04:13:54.919Z,17.22
2022-11-06T04:14:54.925Z,17.26
2022-11-06T04:15:54.923Z,17.22
2022-11-06T04:16:54.929Z,17.18
2022-11-06T04:17:54.920Z,17.23
2022-11-06T04:18:54.912Z,17.26
2022-11-06T04:19:54.910Z,17.28
2022-11-06T04:20:54.901Z,17.28
2022-11-06T04:21:54.949Z,17.28
2022-11-06T04:22:54.890Z,17.26
2022-11-06T04:23:54.900Z,17.22
2022-11-06T04:24:54.887Z,17.18
2022-11-06T04:25:54.917Z,17.26
2022-11-06T04:26:54.892Z,17.16
2022-11-06T04:27:54.884Z,17.21
2022-11-06T04:28:54.893Z,17.21
2022-11-06T04:29:54.873Z,17.19
2022-11-06T04:30:54.865Z,17.19
2022-11-06T04:31:54.863Z,17.16
2022-11-06T04:32:59.792Z,17.19
2022-11-06T04:33:54.865Z,17.18
2022-11-06T04:34:54.867Z,17.19
2022-11-06T04:35:54.856Z,17.18
2022-11-06T04:36:54.848Z,17.19
2022-11-06T04:37:54.845Z,17.16
2022-11-06T04:38:54.846Z,17.12
2022-11-06T04:39:54.891Z,17.19
2022-11-06T04:40:54.840Z,17.23
2022-11-06T04:41:54.858Z,17.15
2022-11-06T04:42:54.835Z,17.16
2022-11-06T04:43:54.829Z,17.22
2022-11-06T04:44:54.826Z,17.16
2022-11-06T04:45:54.823Z,17.12
2022-11-06T04:46:54.819Z,17.15
2022-11-06T04:47:54.819Z,17.15
2022-11-06T04:48:54.816Z,17.18
2022-11-06T04:49:54.802Z,17.19
2022-11-06T04:50:54.808Z,17.15
2022-11-06T04:51:54.806Z,17.16
2022-11-06T04:52:54.793Z,17.15
2022-11-06T04:53:54.793Z,17.21
2022-11-06T04:54:54.798Z,17.21
2022-11-06T04:55:54.793Z,17.18
2022-11-06T04:56:54.789Z,17.18
2022-11-06T04:57:54.798Z,17.21
2022-11-06T04:58:54.775Z,17.15
2022-11-06T04:59:54.780Z,17.21
2022-11-06T05:00:54.833Z,17.19
2022-11-06T05:01:54.823Z,17.19
2022-11-06T05:02:54.759Z,17.15
2022-11-06T05:03:54.766Z,17.15
2022-11-06T05:04:54.752Z,17.15
2022-11-06T05:05:54.754Z,17.22
2022-11-06T05:06:54.759Z,17.16
2022-11-06T05:07:54.740Z,17.11
2022-11-06T05:08:54.752Z,17.14
2022-11-06T05:09:54.744Z,17.14
2022-11-06T05:10:54.748Z,17.15
2022-11-06T05:11:54.733Z,17.14
2022-11-06T05:12:54.723Z,17.11
2022-11-06T05:13:54.753Z,17.14
2022-11-06T05:14:54.730Z,17.18
2022-11-06T05:15:54.721Z,17.23
2022-11-06T05:16:54.720Z,17.11
2022-11-06T05:17:54.724Z,17.14
2022-11-06T05:18:54.713Z,17.15
2022-11-06T05:19:54.701Z,17.14
2022-11-06T05:20:54.707Z,17.11
2022-11-06T05:21:54.693Z,17.16
2022-11-06T05:22:54.690Z,17.15
2022-11-06T05:23:54.710Z,17.11
2022-11-06T05:24:54.692Z,17.14
2022-11-06T05:25:54.691Z,17.15
2022-11-06T05:26:59.081Z,17.16
2022-11-06T05:27:54.684Z,17.12
2022-11-06T05:28:54.682Z,17.12
2022-11-06T05:29:54.699Z,17.19
2022-11-06T05:30:54.672Z,17.14
2022-11-06T05:31:54.677Z,17.08
2022-11-06T05:32:54.671Z,17.18
2022-11-06T05:33:54.664Z,17.15
2022-11-06T05:34:54.651Z,17.04
2022-11-06T05:35:54.659Z,17.21
2022-11-06T05:36:54.651Z,17.16
2022-11-06T05:37:54.717Z,17.12
2022-11-06T05:38:54.643Z,17.19
2022-11-06T05:39:54.643Z,17.12
2022-11-06T05:40:54.641Z,17.16
2022-11-06T05:41:54.635Z,17.12
2022-11-06T05:42:54.640Z,17.16
2022-11-06T05:43:54.639Z,17.18
2022-11-06T05:44:54.619Z,17.04
2022-11-06T05:45:54.641Z,17.14
2022-11-06T05:46:54.625Z,17.16
2022-11-06T05:47:54.620Z,17.18
2022-11-06T05:48:54.612Z,17.16
2022-11-06T05:49:54.610Z,17.16
2022-11-06T05:50:54.620Z,17.21
2022-11-06T05:51:54.623Z,17.19
2022-11-06T05:52:54.617Z,17.12
2022-11-06T05:53:54.604Z,17.14
2022-11-06T05:54:54.592Z,17.19
2022-11-06T05:55:54.583Z,17.14
2022-11-06T05:56:54.584Z,17.19
2022-11-06T05:57:54.572Z,17.22
2022-11-06T05:58:54.576Z,17.16
2022-11-06T05:59:54.574Z,17.14
2022-11-06T06:00:54.572Z,17.11
2022-11-06T06:01:54.734Z,17.16
2022-11-06T06:02:54.616Z,17.08
2022-11-06T06:03:54.559Z,17.11
2022-11-06T06:04:54.559Z,17.15
2022-11-06T06:05:54.587Z,17.08
2022-11-06T06:06:54.551Z,17.04
2022-11-06T06:07:54.536Z,17.15
2022-11-06T06:08:54.540Z,17.15
2022-11-06T06:09:54.532Z,17.06
2022-11-06T06:10:54.530Z,17.11
2022-11-06T06:11:54.537Z,17.12
2022-11-06T06:12:54.529Z,17.12
2022-11-06T06:13:54.529Z,17.08
2022-11-06T06:14:54.525Z,17.06
2022-11-06T06:15:54.520Z,17.11
2022-11-06T06:16:54.509Z,17.07
2022-11-06T06:17:54.540Z,17.08
2022-11-06T06:18:54.517Z,17.08
2022-11-06T06:19:54.508Z,17.07
2022-11-06T06:20:54.512Z,17.08
2022-11-06T06:21:54.490Z,17.06
2022-11-06T06:22:54.497Z,17.15
2022-11-06T06:23:54.487Z,17.08
2022-11-06T06:24:54.645Z,17.12
2022-11-06T06:25:54.478Z,17.12
2022-11-06T06:26:54.480Z,17.12
2022-11-06T06:27:54.476Z,17.11
2022-11-06T06:28:54.465Z,17.08
2022-11-06T06:29:54.472Z,17.11
2022-11-06T06:31:00.092Z,17.12
2022-11-06T06:31:54.470Z,17.12
2022-11-06T06:32:54.458Z,17.08
2022-11-06T06:33:54.477Z,17.07
2022-11-06T06:34:54.448Z,17.07
2022-11-06T06:35:54.451Z,17.03
2022-11-06T06:36:54.464Z,17.06
2022-11-06T06:37:54.447Z,17.07
2022-11-06T06:38:54.442Z,17.01
2022-11-06T06:39:54.438Z,17.06
2022-11-06T06:40:54.437Z,17.07
2022-11-06T06:41:54.431Z,17.07
2022-11-06T06:42:54.420Z,17.04
2022-11-06T06:43:54.420Z,17.00
2022-11-06T06:44:54.412Z,17.12
2022-11-06T06:45:54.423Z,17.04
2022-11-06T06:46:54.423Z,17.07
2022-11-06T06:47:54.414Z,17.01
2022-11-06T06:48:54.399Z,17.11
2022-11-06T06:49:54.414Z,17.07
2022-11-06T06:50:54.396Z,17.04
2022-11-06T06:51:54.395Z,17.01
2022-11-06T06:52:54.406Z,17.03
2022-11-06T06:53:54.391Z,17.06
2022-11-06T06:54:54.387Z,17.03
2022-11-06T06:55:54.383Z,17.00
2022-11-06T06:56:54.374Z,17.08
2022-11-06T06:57:54.387Z,17.03
2022-11-06T06:58:54.371Z,17.03
2022-11-06T06:59:54.368Z,17.08
2022-11-06T07:00:54.415Z,17.01
2022-11-06T07:01:54.469Z,17.03
2022-11-06T07:02:54.363Z,17.03
2022-11-06T07:03:55.864Z,17.06
2022-11-06T07:04:54.341Z,17.01
2022-11-06T07:05:54.363Z,17.01
2022-11-06T07:06:54.349Z,17.04
2022-11-06T07:07:54.345Z,17.03
2022-11-06T07:08:54.349Z,17.06
2022-11-06T07:09:54.325Z,17.03
2022-11-06T07:10:54.332Z,17.08
2022-11-06T07:11:54.324Z,17.06
2022-11-06T07:12:54.319Z,17.03
2022-11-06T07:13:54.330Z,17.06
2022-11-06T07:14:54.307Z,17.03
2022-11-06T07:15:54.308Z,17.01
2022-11-06T07:16:54.307Z,17.12
2022-11-06T07:17:54.314Z,17.06
2022-11-06T07:18:54.310Z,17.01
2022-11-06T07:19:54.291Z,17.03
2022-11-06T07:20:54.289Z,17.06
2022-11-06T07:21:54.305Z,17.03
2022-11-06T07:22:54.291Z,17.03
2022-11-06T07:23:54.293Z,17.01
2022-11-06T07:24:54.282Z,17.04
2022-11-06T07:25:54.282Z,17.00
2022-11-06T07:26:54.266Z,17.07
2022-11-06T07:27:57.929Z,17.04
2022-11-06T07:28:54.260Z,17.01
2022-11-06T07:29:54.281Z,17.08
2022-11-06T07:30:54.252Z,17.04
2022-11-06T07:31:54.252Z,17.07
2022-11-06T07:32:54.248Z,17.06
2022-11-06T07:33:54.259Z,17.03
2022-11-06T07:34:57.678Z,17.03
2022-11-06T07:35:54.272Z,17.01
2022-11-06T07:36:54.235Z,17.07
2022-11-06T07:37:54.260Z,17.07
2022-11-06T07:38:54.230Z,17.01
2022-11-06T07:39:54.231Z,17.06
2022-11-06T07:40:54.220Z,17.04
2022-11-06T07:41:54.218Z,17.01
2022-11-06T07:42:54.221Z,17.03
2022-11-06T07:43:54.216Z,17.01
2022-11-06T07:44:54.211Z,17.08
2022-11-06T07:45:54.213Z,17.01
2022-11-06T07:46:54.208Z,17.07
2022-11-06T07:47:58.961Z,17.03
2022-11-06T07:48:54.202Z,17.07
2022-11-06T07:49:54.203Z,17.06
2022-11-06T07:50:54.192Z,17.03
2022-11-06T07:51:54.193Z,17.03
2022-11-06T07:52:54.187Z,17.03
2022-11-06T07:53:54.209Z,17.03
2022-11-06T07:54:54.185Z,16.94
2022-11-06T07:55:54.174Z,17.01
2022-11-06T07:56:54.181Z,17.04
2022-11-06T07:57:54.181Z,17.03
2022-11-06T07:58:54.172Z,17.04
2022-11-06T07:59:54.165Z,16.97
2022-11-06T08:00:54.242Z,17.03
2022-11-06T08:01:54.296Z,17.03
2022-11-06T08:02:54.156Z,17.06
2022-11-06T08:03:54.142Z,17.03
2022-11-06T08:04:54.145Z,17.06
2022-11-06T08:05:54.131Z,17.04
2022-11-06T08:06:54.131Z,17.04
2022-11-06T08:07:54.135Z,17.06
2022-11-06T08:08:58.774Z,17.06
2022-11-06T08:09:54.143Z,17.07
2022-11-06T08:10:54.123Z,16.97
2022-11-06T08:11:54.123Z,17.06
2022-11-06T08:12:54.117Z,16.96
2022-11-06T08:13:54.108Z,16.91
2022-11-06T08:14:54.148Z,16.91
2022-11-06T08:15:54.157Z,17.01
2022-11-06T08:16:54.095Z,16.98
2022-11-06T08:17:54.102Z,16.96
2022-11-06T08:18:54.096Z,16.96
2022-11-06T08:19:54.093Z,16.91
2022-11-06T08:20:54.084Z,16.96
2022-11-06T08:21:54.091Z,17.00
2022-11-06T08:22:54.080Z,16.93
2022-11-06T08:23:54.072Z,16.94
2022-11-06T08:24:54.067Z,16.96
2022-11-06T08:25:54.080Z,16.98
2022-11-06T08:26:54.061Z,16.96
2022-11-06T08:27:54.064Z,16.93
2022-11-06T08:28:54.154Z,17.00
2022-11-06T08:29:54.060Z,16.96
2022-11-06T08:30:54.054Z,16.86
2022-11-06T08:31:54.041Z,17.00
2022-11-06T08:32:54.053Z,17.00
2022-11-06T08:33:54.047Z,17.03
2022-11-06T08:34:54.034Z,16.96
2022-11-06T08:35:54.030Z,16.98
2022-11-06T08:36:54.034Z,16.96
2022-11-06T08:37:54.024Z,17.00
2022-11-06T08:38:54.028Z,17.03
2022-11-06T08:39:54.027Z,16.98
2022-11-06T08:40:54.138Z,16.94
2022-11-06T08:41:54.039Z,16.97
2022-11-06T08:42:54.001Z,16.94
2022-11-06T08:43:54.010Z,17.01
2022-11-06T08:44:54.006Z,17.01
2022-11-06T08:45:54.001Z,17.06
2022-11-06T08:46:53.994Z,17.07
2022-11-06T08:47:53.995Z,17.03
2022-11-06T08:48:53.995Z,16.96
2022-11-06T08:49:53.995Z,17.03
2022-11-06T08:50:53.988Z,17.01
2022-11-06T08:51:53.977Z,17.07
2022-11-06T08:52:53.975Z,17.07
2022-11-06T08:53:54.024Z,17.11
2022-11-06T08:54:53.970Z,17.08
2022-11-06T08:55:53.959Z,17.14
2022-11-06T08:56:53.956Z,17.14
2022-11-06T08:57:54.065Z,17.18
2022-11-06T08:58:55.795Z,17.18
2022-11-06T08:59:53.961Z,17.28
2022-11-06T09:00:54.015Z,17.34
2022-11-06T09:01:54.090Z,17.30
2022-11-06T09:02:53.938Z,17.44
2022-11-06T09:03:53.937Z,17.51
2022-11-06T09:04:53.941Z,17.48
2022-11-06T09:05:53.926Z,17.55
2022-11-06T09:06:53.930Z,17.70
2022-11-06T09:07:53.918Z,17.64
2022-11-06T09:08:53.919Z,17.77
2022-11-06T09:09:53.926Z,17.77
2022-11-06T09:11:09.958Z,17.87
2022-11-06T09:11:53.908Z,17.84
2022-11-06T09:12:53.921Z,17.82
2022-11-06T09:13:53.991Z,17.90
2022-11-06T09:14:53.947Z,17.95
2022-11-06T09:15:54.000Z,17.93
2022-11-06T09:16:53.927Z,18.08
2022-11-06T09:17:53.943Z,18.03
2022-11-06T09:18:53.943Z,18.15
2022-11-06T09:19:53.898Z,18.25
2022-11-06T09:20:53.939Z,18.10
2022-11-06T09:21:54.950Z,18.12
2022-11-06T09:22:53.880Z,18.17
2022-11-06T09:23:53.889Z,18.25
2022-11-06T09:25:07.974Z,18.27
2022-11-06T09:25:53.889Z,18.25
2022-11-06T09:26:53.879Z,18.37
2022-11-06T09:27:58.981Z,18.41
2022-11-06T09:28:53.865Z,18.39
2022-11-06T09:29:53.880Z,18.39
2022-11-06T09:30:53.855Z,18.45
2022-11-06T09:31:53.858Z,18.52
2022-11-06T09:32:53.879Z,18.48
2022-11-06T09:33:53.863Z,18.51
2022-11-06T09:34:53.855Z,18.45
2022-11-06T09:35:53.846Z,18.51
2022-11-06T09:36:54.116Z,18.50
2022-11-06T09:37:53.865Z,18.58
2022-11-06T09:38:53.844Z,18.60
2022-11-06T09:39:53.884Z,18.58
2022-11-06T09:40:53.879Z,18.58
2022-11-06T09:41:53.834Z,18.54
2022-11-06T09:42:53.847Z,18.57
2022-11-06T09:44:09.235Z,18.57
2022-11-06T09:44:53.893Z,18.58
2022-11-06T09:45:55.079Z,18.65
2022-11-06T09:46:54.022Z,18.54
2022-11-06T09:47:53.883Z,18.62
2022-11-06T09:48:53.854Z,18.54
2022-11-06T09:49:53.863Z,18.58
2022-11-06T09:51:09.837Z,18.52
2022-11-06T09:51:53.821Z,18.55
2022-11-06T09:52:53.808Z,18.54
2022-11-06T09:53:53.811Z,18.60
2022-11-06T09:54:57.478Z,18.57
2022-11-06T09:55:53.817Z,18.63
2022-11-06T09:56:53.842Z,18.51
2022-11-06T09:57:53.837Z,18.55
2022-11-06T09:59:09.825Z,18.52
2022-11-06T09:59:53.854Z,18.57
2022-11-06T10:00:53.877Z,18.51
2022-11-06T10:01:54.013Z,18.62
2022-11-06T10:02:53.924Z,18.62
2022-11-06T10:03:53.875Z,18.58
2022-11-06T10:04:53.817Z,18.54
2022-11-06T10:05:53.798Z,18.55
2022-11-06T10:06:53.820Z,18.54
2022-11-06T10:07:53.787Z,18.51
2022-11-06T10:08:53.818Z,18.51
2022-11-06T10:09:53.776Z,18.48
2022-11-06T10:10:53.823Z,18.51
2022-11-06T10:11:53.808Z,18.52
2022-11-06T10:12:53.782Z,18.48
2022-11-06T10:13:53.798Z,18.47
2022-11-06T10:14:53.829Z,18.45
2022-11-06T10:15:53.988Z,18.50
2022-11-06T10:16:53.761Z,18.42
2022-11-06T10:17:53.800Z,18.48
2022-11-06T10:18:54.064Z,18.37
2022-11-06T10:19:53.784Z,18.44
2022-11-06T10:20:53.755Z,18.41
2022-11-06T10:21:53.764Z,18.39
2022-11-06T10:22:53.743Z,18.45
2022-11-06T10:23:53.739Z,18.44
2022-11-06T10:24:53.747Z,18.33
2022-11-06T10:25:53.735Z,18.42
2022-11-06T10:26:53.725Z,18.30
2022-11-06T10:27:53.743Z,18.33
2022-11-06T10:28:53.736Z,18.41
2022-11-06T10:29:53.727Z,18.35
2022-11-06T10:30:53.718Z,18.37
2022-11-06T10:31:53.726Z,18.39
2022-11-06T10:32:53.752Z,18.36
2022-11-06T10:33:53.754Z,18.33
2022-11-06T10:34:53.714Z,18.32
2022-11-06T10:35:53.714Z,18.33
2022-11-06T10:36:53.717Z,18.23
2022-11-06T10:37:53.712Z,18.23
2022-11-06T10:38:53.704Z,18.15
2022-11-06T10:39:53.709Z,18.05
2022-11-06T10:40:53.694Z,18.08
2022-11-06T10:41:53.701Z,18.07
2022-11-06T10:42:53.692Z,17.95
2022-11-06T10:43:53.685Z,18.00
2022-11-06T10:44:53.683Z,17.92
2022-11-06T10:45:53.690Z,17.90
2022-11-06T10:46:53.688Z,17.81
2022-11-06T10:47:53.694Z,17.82
2022-11-06T10:48:53.674Z,17.77
2022-11-06T10:49:53.789Z,17.64
2022-11-06T10:50:53.669Z,17.68
2022-11-06T10:51:53.667Z,17.59
2022-11-06T10:52:53.658Z,17.62
2022-11-06T10:53:53.667Z,17.51
2022-11-06T10:54:53.648Z,17.46
2022-11-06T10:55:53.668Z,17.44
2022-11-06T10:56:53.653Z,17.52
2022-11-06T10:57:53.659Z,17.49
2022-11-06T10:58:53.645Z,17.44
2022-11-06T10:59:53.631Z,17.41
2022-11-06T11:00:53.728Z,17.48
2022-11-06T11:01:54.024Z,17.34
2022-11-06T11:02:53.624Z,17.33
2022-11-06T11:03:53.632Z,17.30
2022-11-06T11:04:57.750Z,17.40
2022-11-06T11:05:53.689Z,17.31
2022-11-06T11:06:53.607Z,17.31
2022-11-06T11:07:53.609Z,17.31
2022-11-06T11:08:53.606Z,17.34
2022-11-06T11:09:53.607Z,17.34
2022-11-06T11:11:04.537Z,17.31
2022-11-06T11:11:53.600Z,17.25
2022-11-06T11:12:53.592Z,17.26
2022-11-06T11:13:53.579Z,17.15
2022-11-06T11:14:53.573Z,17.19
2022-11-06T11:15:53.582Z,17.18
2022-11-06T11:16:53.573Z,17.16
2022-11-06T11:17:53.582Z,17.19
2022-11-06T11:18:53.591Z,17.21
2022-11-06T11:19:53.557Z,17.14
2022-11-06T11:20:53.555Z,17.16
2022-11-06T11:21:53.571Z,17.21
2022-11-06T11:22:53.562Z,17.15
2022-11-06T11:23:53.541Z,17.16
2022-11-06T11:24:53.543Z,17.16
2022-11-06T11:25:53.540Z,17.18
2022-11-06T11:26:53.538Z,17.21
2022-11-06T11:27:53.541Z,17.18
2022-11-06T11:28:53.521Z,17.18
2022-11-06T11:29:53.529Z,17.15
2022-11-06T11:30:53.523Z,17.21
2022-11-06T11:31:53.522Z,17.19
2022-11-06T11:32:53.514Z,17.16
2022-11-06T11:33:53.514Z,17.22
2022-11-06T11:34:56.663Z,17.25
2022-11-06T11:35:53.509Z,17.23
2022-11-06T11:36:53.504Z,17.23
2022-11-06T11:37:53.513Z,17.26
2022-11-06T11:38:53.501Z,17.23
2022-11-06T11:39:53.501Z,17.23
2022-11-06T11:40:53.495Z,17.30
2022-11-06T11:41:53.479Z,17.26
2022-11-06T11:42:53.479Z,17.30
2022-11-06T11:43:53.466Z,17.34
2022-11-06T11:44:53.585Z,17.31
2022-11-06T11:45:53.471Z,17.30
2022-11-06T11:46:53.595Z,17.34
2022-11-06T11:47:53.464Z,17.31
2022-11-06T11:48:53.462Z,17.33
2022-11-06T11:49:53.459Z,17.34
2022-11-06T11:50:53.455Z,17.31
2022-11-06T11:51:53.445Z,17.26
2022-11-06T11:52:53.454Z,17.28
2022-11-06T11:53:53.462Z,17.34
2022-11-06T11:54:53.440Z,17.28
2022-11-06T11:55:53.435Z,17.36
2022-11-06T11:57:08.803Z,17.33
2022-11-06T11:57:53.422Z,17.31
2022-11-06T11:58:53.424Z,17.33
2022-11-06T11:59:53.427Z,17.40
2022-11-06T12:00:53.457Z,17.44
2022-11-06T12:01:53.622Z,17.43
2022-11-06T12:02:53.489Z,17.38
2022-11-06T12:03:53.405Z,17.38
2022-11-06T12:04:53.403Z,17.44
2022-11-06T12:05:53.404Z,17.40
2022-11-06T12:06:53.404Z,17.48
2022-11-06T12:07:53.404Z,17.49
2022-11-06T12:08:53.402Z,17.44
2022-11-06T12:09:53.423Z,17.46
2022-11-06T12:10:53.392Z,17.46
2022-11-06T12:11:53.385Z,17.46
2022-11-06T12:12:53.397Z,17.48
2022-11-06T12:13:53.372Z,17.49
2022-11-06T12:14:53.381Z,17.44
2022-11-06T12:15:53.368Z,17.48
2022-11-06T12:16:53.364Z,17.44
2022-11-06T12:17:53.365Z,17.41
2022-11-06T12:18:58.538Z,17.48
2022-11-06T12:19:53.369Z,17.49
2022-11-06T12:20:53.361Z,17.48
2022-11-06T12:21:53.360Z,17.43
2022-11-06T12:22:53.357Z,17.52
2022-11-06T12:23:53.358Z,17.54
2022-11-06T12:24:53.348Z,17.41
2022-11-06T12:25:53.357Z,17.52
2022-11-06T12:26:53.343Z,17.48
2022-11-06T12:27:53.330Z,17.49
2022-11-06T12:28:53.395Z,17.54
2022-11-06T12:29:53.339Z,17.52
2022-11-06T12:30:53.333Z,17.44
2022-11-06T12:31:53.316Z,17.44
2022-11-06T12:32:53.329Z,17.48
2022-11-06T12:34:06.111Z,17.51
2022-11-06T12:34:53.327Z,17.48
2022-11-06T12:35:53.333Z,17.54
2022-11-06T12:36:53.341Z,17.44
2022-11-06T12:37:53.298Z,17.54
2022-11-06T12:38:53.300Z,17.46
2022-11-06T12:39:53.303Z,17.48
2022-11-06T12:40:53.290Z,17.48
2022-11-06T12:41:53.307Z,17.51
2022-11-06T12:42:53.297Z,17.46
2022-11-06T12:43:53.536Z,17.43
2022-11-06T12:45:09.333Z,17.52
2022-11-06T12:45:53.275Z,17.54
2022-11-06T12:46:53.337Z,17.43
2022-11-06T12:47:53.304Z,17.44
2022-11-06T12:48:53.301Z,17.46
2022-11-06T12:49:53.274Z,17.48
2022-11-06T12:50:53.265Z,17.55
2022-11-06T12:51:53.265Z,17.43
2022-11-06T12:52:53.258Z,17.46